Time;durP1;ratioP1;P1;durP2;ratioP2;P2;SDS_P1;SDS_P2;PMS_P1;PMS_P2;Temp;Humidity;BMP_temperature;BMP_pressure;BME280_temperature;BME280_humidity;BME280_pressure;Samples;Min_cycle;Max_cycle;Signal;HPM_P1;HPM_P2
2020/12/23 00:01:17;;;;;;;1.80;0.77;;;17.80;68.70;;;;;;2371800;53;20918;-71
2020/12/23 00:03:43;;;;;;;1.70;0.60;;;17.80;68.70;;;;;;2360089;53;20955;-72
2020/12/23 00:06:10;;;;;;;1.62;0.60;;;17.80;69.10;;;;;;2343779;54;20938;-72
2020/12/23 00:08:37;;;;;;;0.65;0.40;;;17.80;68.70;;;;;;2623860;52;21030;-72
2020/12/23 00:11:03;;;;;;;1.58;0.50;;;17.80;68.60;;;;;;2355382;53;20940;-72
2020/12/23 00:13:31;;;;;;;1.10;0.40;;;17.80;68.70;;;;;;2618766;52;20937;-72
2020/12/23 00:15:58;;;;;;;1.42;0.55;;;17.80;68.70;;;;;;2370893;53;20997;-71
2020/12/23 00:18:24;;;;;;;1.35;0.50;;;17.80;68.50;;;;;;2623392;52;20989;-72
2020/12/23 00:20:54;;;;;;;1.55;0.50;;;17.80;68.70;;;;;;2623051;52;20907;-72
2020/12/23 00:23:20;;;;;;;1.40;0.60;;;17.80;68.70;;;;;;2576569;52;20909;-72
2020/12/23 00:25:47;;;;;;;1.48;0.60;;;17.80;68.90;;;;;;2585188;52;21027;-71
2020/12/23 00:28:14;;;;;;;1.00;0.45;;;17.80;68.80;;;;;;2362527;53;20932;-72
2020/12/23 00:30:41;;;;;;;0.90;0.32;;;17.80;68.90;;;;;;2361452;53;22166;-72
2020/12/23 00:33:10;;;;;;;1.05;0.40;;;17.80;69.00;;;;;;2607096;52;21827;-72
2020/12/23 00:35:37;;;;;;;1.37;0.57;;;17.80;69.20;;;;;;2582146;52;21013;-72
2020/12/23 00:38:05;;;;;;;0.93;0.50;;;17.80;68.90;;;;;;2594878;52;21722;-71
2020/12/23 00:40:32;;;;;;;1.67;0.60;;;17.80;68.60;;;;;;2595461;52;21978;-72
2020/12/23 00:42:58;;;;;;;2.08;0.47;;;17.80;68.80;;;;;;2581332;52;20984;-72
2020/12/23 00:45:26;;;;;;;1.83;0.80;;;17.80;68.70;;;;;;2344660;53;20975;-71
2020/12/23 00:47:54;;;;;;;2.20;0.80;;;17.80;68.40;;;;;;2348293;53;21014;-71
2020/12/23 00:50:20;;;;;;;1.42;0.55;;;17.80;68.50;;;;;;2621903;52;20950;-71
2020/12/23 00:52:47;;;;;;;2.65;1.00;;;17.80;68.70;;;;;;2371421;53;20946;-71
2020/12/23 00:55:13;;;;;;;1.83;0.70;;;17.80;68.80;;;;;;2365250;53;21007;-72
2020/12/23 00:57:41;;;;;;;1.62;0.60;;;17.80;68.80;;;;;;2360245;53;20945;-72
2020/12/23 01:00:08;;;;;;;0.95;0.47;;;17.80;68.80;;;;;;2358982;53;21100;-72
2020/12/23 01:02:34;;;;;;;0.93;0.50;;;17.80;69.10;;;;;;2615626;52;22097;-72
2020/12/23 01:05:01;;;;;;;1.60;0.60;;;17.80;68.70;;;;;;2371005;53;21451;-71
2020/12/23 01:07:28;;;;;;;1.65;0.68;;;17.80;69.10;;;;;;2598585;52;20951;-72
2020/12/23 01:09:55;;;;;;;2.10;0.82;;;17.80;69.10;;;;;;2358540;53;21919;-71
2020/12/23 01:12:21;;;;;;;1.90;0.70;;;17.90;69.40;;;;;;2362166;53;21445;-72
2020/12/23 01:14:48;;;;;;;1.55;0.50;;;17.90;69.60;;;;;;2369122;53;20965;-72
2020/12/23 01:17:16;;;;;;;1.20;0.50;;;17.90;69.60;;;;;;2372999;53;20937;-72
2020/12/23 01:19:43;;;;;;;1.08;0.40;;;17.90;69.70;;;;;;2364283;53;21007;-72
2020/12/23 01:22:10;;;;;;;1.48;0.50;;;17.90;69.80;;;;;;2360122;53;21446;-72
2020/12/23 01:24:37;;;;;;;1.42;0.43;;;17.90;69.70;;;;;;2371408;53;21078;-71
2020/12/23 01:27:07;;;;;;;1.42;0.50;;;17.90;69.60;;;;;;2589986;53;20968;-72
2020/12/23 01:29:33;;;;;;;1.55;0.55;;;17.90;69.80;;;;;;2607376;52;21006;-72
2020/12/23 01:32:01;;;;;;;1.73;0.60;;;17.90;69.90;;;;;;2371978;53;21009;-72
2020/12/23 01:34:28;;;;;;;1.48;0.50;;;17.90;69.40;;;;;;2371522;53;20993;-72
2020/12/23 01:36:54;;;;;;;1.48;0.57;;;18.00;69.50;;;;;;2371567;53;20934;-72
2020/12/23 01:39:20;;;;;;;1.98;0.60;;;18.00;69.40;;;;;;2361082;53;20984;-72
2020/12/23 01:41:58;;;;;;;1.17;0.40;;;18.00;69.40;;;;;;2348572;53;21089;-72
2020/12/23 01:44:25;;;;;;;1.87;0.50;;;18.00;69.10;;;;;;2350513;53;20952;-72
2020/12/23 01:46:51;;;;;;;1.65;0.60;;;18.00;69.20;;;;;;2365610;53;21018;-71
2020/12/23 01:49:18;;;;;;;2.00;0.62;;;18.00;69.30;;;;;;2602279;52;20935;-72
2020/12/23 01:51:46;;;;;;;1.42;0.50;;;18.00;69.40;;;;;;2365194;53;20991;-72
2020/12/23 01:54:15;;;;;;;1.40;0.50;;;18.10;69.40;;;;;;2340876;54;21934;-72
2020/12/23 01:56:54;;;;;;;1.45;0.50;;;18.10;69.40;;;;;;2366963;53;20934;-72
2020/12/23 01:59:21;;;;;;;1.17;0.40;;;18.10;69.10;;;;;;2623897;52;21041;-71
2020/12/23 02:01:48;;;;;;;1.20;0.40;;;18.10;69.40;;;;;;2363894;53;21045;-72
2020/12/23 02:04:19;;;;;;;2.20;0.52;;;18.10;69.20;;;;;;2591052;52;20954;-71
2020/12/23 02:06:46;;;;;;;1.73;0.70;;;18.10;69.30;;;;;;2592548;52;21434;-72
2020/12/23 02:09:12;;;;;;;2.60;0.90;;;18.10;69.40;;;;;;2622177;52;21343;-72
2020/12/23 02:11:39;;;;;;;2.33;0.80;;;18.10;69.30;;;;;;2602893;52;20983;-71
2020/12/23 02:14:05;;;;;;;0.85;0.40;;;18.10;68.60;;;;;;2344348;54;20953;-72
2020/12/23 02:16:32;;;;;;;1.80;0.65;;;18.10;69.10;;;;;;2352048;53;20946;-72
2020/12/23 02:18:58;;;;;;;0.90;0.40;;;18.10;69.10;;;;;;2607934;52;21083;-71
2020/12/23 02:21:25;;;;;;;1.37;0.60;;;18.10;69.20;;;;;;2339985;53;21383;-72
2020/12/23 02:23:52;;;;;;;1.37;0.55;;;18.20;69.30;;;;;;2624554;52;20950;-72
2020/12/23 02:26:19;;;;;;;2.22;0.73;;;18.20;69.40;;;;;;2352637;54;20919;-72
2020/12/23 02:28:46;;;;;;;1.77;0.60;;;18.20;69.50;;;;;;2624388;52;20978;-72
2020/12/23 02:31:13;;;;;;;2.12;0.95;;;18.20;69.40;;;;;;2351925;53;21754;-71
2020/12/23 02:33:40;;;;;;;4.43;1.08;;;18.20;69.10;;;;;;2624643;52;21391;-72
2020/12/23 02:36:06;;;;;;;3.67;1.30;;;18.20;69.20;;;;;;2595420;52;21456;-72
2020/12/23 02:38:33;;;;;;;5.30;1.50;;;18.20;69.20;;;;;;2593891;52;20926;-72
2020/12/23 02:41:02;;;;;;;3.72;1.25;;;18.20;69.10;;;;;;2351267;53;21062;-72
2020/12/23 02:43:31;;;;;;;3.20;1.17;;;18.20;69.20;;;;;;2623861;52;20942;-72
2020/12/23 02:46:01;;;;;;;2.40;0.60;;;18.20;69.10;;;;;;2589445;53;21396;-72
2020/12/23 02:48:30;;;;;;;2.62;0.85;;;18.20;68.90;;;;;;2334372;54;20956;-72
2020/12/23 02:50:57;;;;;;;4.15;1.30;;;18.20;69.10;;;;;;2362202;53;21014;-71
2020/12/23 02:53:24;;;;;;;3.87;1.33;;;18.20;69.10;;;;;;2603131;52;21536;-72
2020/12/23 02:55:55;;;;;;;4.32;1.58;;;18.20;69.20;;;;;;2354484;53;21030;-72
2020/12/23 02:58:21;;;;;;;3.00;1.20;;;18.20;69.10;;;;;;2352369;53;21399;-72
2020/12/23 03:00:48;;;;;;;2.47;0.70;;;18.20;69.20;;;;;;2370731;53;20962;-71
2020/12/23 03:03:16;;;;;;;1.77;0.70;;;18.20;69.10;;;;;;2372046;53;21101;-71
2020/12/23 03:05:42;;;;;;;2.47;0.88;;;18.20;69.00;;;;;;2596490;52;21949;-72
2020/12/23 03:08:09;;;;;;;1.33;0.50;;;18.20;69.00;;;;;;2580104;53;21027;-72
2020/12/23 03:10:35;;;;;;;1.77;0.55;;;18.20;69.00;;;;;;2596965;52;20940;-72
2020/12/23 03:13:02;;;;;;;1.98;0.70;;;18.10;69.00;;;;;;2355124;53;21732;-72
2020/12/23 03:15:29;;;;;;;1.02;0.50;;;18.20;69.10;;;;;;2582899;52;20925;-72
2020/12/23 03:17:55;;;;;;;1.62;0.60;;;18.20;69.30;;;;;;2356909;53;20971;-72
2020/12/23 03:20:22;;;;;;;2.42;0.85;;;18.20;69.40;;;;;;2349259;53;20996;-72
2020/12/23 03:22:49;;;;;;;2.33;0.77;;;18.20;69.30;;;;;;2623868;52;21817;-72
2020/12/23 03:25:16;;;;;;;2.28;0.82;;;18.20;69.30;;;;;;2607132;52;21734;-72
2020/12/23 03:27:43;;;;;;;2.53;0.90;;;18.20;69.30;;;;;;2343727;53;21015;-73
2020/12/23 03:30:12;;;;;;;3.20;1.27;;;18.20;69.40;;;;;;2346055;53;21004;-72
2020/12/23 03:32:38;;;;;;;4.68;1.37;;;18.20;69.50;;;;;;2368563;53;21062;-72
2020/12/23 03:35:15;;;;;;;3.45;1.25;;;18.20;69.50;;;;;;2345924;53;20956;-72
2020/12/23 03:37:42;;;;;;;2.42;0.82;;;18.20;69.40;;;;;;2339596;54;20993;-72
2020/12/23 03:40:08;;;;;;;3.35;1.12;;;18.20;69.10;;;;;;2351222;53;20984;-72
2020/12/23 03:42:36;;;;;;;2.70;0.77;;;18.20;69.20;;;;;;2351697;53;21009;-72
2020/12/23 03:45:04;;;;;;;1.55;0.55;;;18.20;69.00;;;;;;2371175;53;21380;-72
2020/12/23 03:47:30;;;;;;;1.65;0.50;;;18.20;69.20;;;;;;2623750;52;20930;-72
2020/12/23 03:49:57;;;;;;;1.12;0.40;;;18.20;69.20;;;;;;2351828;53;21582;-71
2020/12/23 03:52:23;;;;;;;0.65;0.40;;;18.20;69.20;;;;;;2595381;52;21515;-72
2020/12/23 03:54:49;;;;;;;1.00;0.50;;;18.20;69.20;;;;;;2371874;53;20974;-72
2020/12/23 03:57:16;;;;;;;0.85;0.40;;;18.20;69.30;;;;;;2613224;52;20963;-72
2020/12/23 03:59:43;;;;;;;1.48;0.55;;;18.20;69.40;;;;;;2331086;53;20967;-71
2020/12/23 04:02:12;;;;;;;0.88;0.40;;;18.20;69.30;;;;;;2355264;53;21408;-72
2020/12/23 04:04:38;;;;;;;0.98;0.40;;;18.20;69.20;;;;;;2370525;53;21031;-72
2020/12/23 04:07:23;;;;;;;1.40;0.50;;;18.20;69.10;;;;;;2597263;52;21043;-72
2020/12/23 04:09:50;;;;;;;0.47;0.30;;;18.10;67.50;;;;;;2581877;53;20995;-72
2020/12/23 04:12:19;;;;;;;1.33;0.50;;;18.10;68.50;;;;;;2585944;52;20934;-71
2020/12/23 04:14:47;;;;;;;0.75;0.40;;;18.10;68.70;;;;;;2371949;53;20974;-72
2020/12/23 04:17:14;;;;;;;0.98;0.50;;;18.10;68.00;;;;;;2623129;52;20930;-72
2020/12/23 04:19:42;;;;;;;0.62;0.30;;;18.10;68.00;;;;;;2357788;53;20937;-71
2020/12/23 04:22:09;;;;;;;1.00;0.43;;;18.10;67.90;;;;;;2590083;52;21014;-71
2020/12/23 04:24:35;;;;;;;0.80;0.30;;;18.10;66.90;;;;;;2347523;53;20952;-72
2020/12/23 04:27:02;;;;;;;0.80;0.40;;;18.10;67.30;;;;;;2353356;53;21035;-72
2020/12/23 04:29:31;;;;;;;1.55;0.60;;;18.10;67.40;;;;;;2339365;53;20983;-72
2020/12/23 04:31:57;;;;;;;1.35;0.50;;;18.10;67.00;;;;;;2606821;52;21467;-72
2020/12/23 04:34:25;;;;;;;0.52;0.28;;;18.10;66.60;;;;;;2351661;53;21044;-72
2020/12/23 04:36:52;;;;;;;0.43;0.20;;;18.10;66.70;;;;;;2624189;52;20914;-71
2020/12/23 04:39:19;;;;;;;2.00;0.40;;;18.10;67.00;;;;;;2372091;53;20937;-71
2020/12/23 04:41:45;;;;;;;2.62;0.40;;;18.10;67.00;;;;;;2371810;53;20961;-72
2020/12/23 04:44:12;;;;;;;1.20;0.40;;;18.10;66.10;;;;;;2570074;53;20947;-71
2020/12/23 04:46:39;;;;;;;1.12;0.50;;;18.10;66.30;;;;;;2353986;53;21001;-71
2020/12/23 04:49:06;;;;;;;0.80;0.30;;;18.00;66.70;;;;;;2598134;52;20954;-71
2020/12/23 04:51:33;;;;;;;0.52;0.30;;;18.00;66.80;;;;;;2624315;52;20970;-71
2020/12/23 04:54:01;;;;;;;0.73;0.30;;;18.00;67.10;;;;;;2351519;53;21059;-71
2020/12/23 04:56:29;;;;;;;1.10;0.40;;;18.00;66.90;;;;;;2614273;52;21552;-71
2020/12/23 04:58:55;;;;;;;1.10;0.45;;;18.00;67.00;;;;;;2354531;53;21028;-71
2020/12/23 05:01:22;;;;;;;1.10;0.40;;;18.00;67.10;;;;;;2371630;53;20950;-70
2020/12/23 05:03:49;;;;;;;0.73;0.40;;;18.00;66.80;;;;;;2371807;53;20934;-72
2020/12/23 05:06:15;;;;;;;1.37;0.50;;;18.00;67.00;;;;;;2624312;52;20937;-71
2020/12/23 05:08:42;;;;;;;0.43;0.30;;;18.00;67.00;;;;;;2354441;53;20991;-72
2020/12/23 05:11:09;;;;;;;1.25;0.37;;;18.00;67.30;;;;;;2358413;53;21488;-71
2020/12/23 05:13:36;;;;;;;0.75;0.35;;;18.00;67.10;;;;;;2613708;52;20978;-71
2020/12/23 05:16:06;;;;;;;1.20;0.40;;;18.10;67.10;;;;;;2372336;53;21909;-72
2020/12/23 05:18:33;;;;;;;1.15;0.40;;;18.10;66.70;;;;;;2371883;53;20937;-71
2020/12/23 05:21:00;;;;;;;1.20;0.50;;;18.10;67.00;;;;;;2615597;52;20943;-71
2020/12/23 05:23:30;;;;;;;0.90;0.40;;;18.10;66.90;;;;;;2603543;52;20954;-72
2020/12/23 05:26:03;;;;;;;1.15;0.43;;;18.10;66.70;;;;;;2616027;52;20976;-71
2020/12/23 05:28:30;;;;;;;1.65;0.30;;;18.10;66.00;;;;;;2340879;54;21809;-71
2020/12/23 05:31:06;;;;;;;0.70;0.40;;;18.10;66.40;;;;;;2594566;52;21725;-71
2020/12/23 05:33:33;;;;;;;1.02;0.37;;;18.10;66.20;;;;;;2337804;54;20939;-71
2020/12/23 05:36:08;;;;;;;0.60;0.32;;;18.10;66.60;;;;;;2610421;52;21045;-71
2020/12/23 05:38:36;;;;;;;0.88;0.47;;;18.10;65.90;;;;;;2598424;52;20934;-71
2020/12/23 05:41:07;;;;;;;0.82;0.55;;;18.10;66.30;;;;;;2615936;52;21538;-71
2020/12/23 05:43:34;;;;;;;1.17;0.35;;;18.10;66.30;;;;;;2591944;52;20947;-71
2020/12/23 05:46:10;;;;;;;0.77;0.30;;;18.10;66.60;;;;;;2623846;52;20926;-72
2020/12/23 05:48:38;;;;;;;0.50;0.30;;;18.20;65.90;;;;;;2371495;53;21041;-72
2020/12/23 05:51:05;;;;;;;0.77;0.40;;;18.20;66.20;;;;;;2624144;52;20953;-71
2020/12/23 05:53:34;;;;;;;0.32;0.20;;;18.20;66.20;;;;;;2371733;53;20938;-71
2020/12/23 05:56:01;;;;;;;0.98;0.40;;;18.20;66.00;;;;;;2625001;52;21439;-71
2020/12/23 05:58:29;;;;;;;1.98;0.30;;;18.30;66.20;;;;;;2363563;53;20991;-71
2020/12/23 06:01:06;;;;;;;1.75;0.57;;;18.30;65.60;;;;;;2582869;52;21882;-71
2020/12/23 06:04:07;;;;;;;1.20;0.40;;;18.30;65.20;;;;;;2372940;53;20918;-71
2020/12/23 06:06:35;;;;;;;0.88;0.40;;;18.40;64.40;;;;;;2609244;52;20994;-71
2020/12/23 06:09:05;;;;;;;2.30;0.50;;;18.40;65.70;;;;;;2589596;53;20951;-71
2020/12/23 06:12:05;;;;;;;0.75;0.30;;;18.40;65.60;;;;;;2618311;52;21313;-71
2020/12/23 06:14:34;;;;;;;1.30;0.40;;;18.40;64.10;;;;;;2624492;52;21006;-71
2020/12/23 06:17:04;;;;;;;1.08;0.50;;;18.40;65.30;;;;;;2624679;52;20962;-70
2020/12/23 06:19:39;;;;;;;0.47;0.20;;;18.40;64.70;;;;;;2372122;53;20960;-71
2020/12/23 06:22:09;;;;;;;1.52;0.50;;;18.40;64.90;;;;;;2594191;52;21456;-72
2020/12/23 06:24:37;;;;;;;1.30;0.40;;;18.50;64.60;;;;;;2361906;53;20987;-71
2020/12/23 06:27:07;;;;;;;1.50;0.47;;;18.50;64.20;;;;;;2583482;52;20998;-71
2020/12/23 06:29:47;;;;;;;1.15;0.30;;;18.50;64.00;;;;;;2371688;53;20934;-71
2020/12/23 06:32:23;;;;;;;0.95;0.43;;;18.50;64.30;;;;;;2623588;52;21017;-71
2020/12/23 06:35:00;;;;;;;0.55;0.35;;;18.50;63.30;;;;;;2371179;53;21021;-71
2020/12/23 06:37:30;;;;;;;1.00;0.37;;;18.50;63.60;;;;;;2623686;52;20930;-71
2020/12/23 06:39:59;;;;;;;0.80;0.30;;;18.50;63.60;;;;;;2372411;53;21506;-71
2020/12/23 06:42:26;;;;;;;0.90;0.43;;;18.50;63.80;;;;;;2623960;52;21454;-71
2020/12/23 06:45:00;;;;;;;1.77;0.50;;;18.50;63.30;;;;;;2371914;53;20950;-71
2020/12/23 06:47:28;;;;;;;1.05;0.40;;;18.50;63.30;;;;;;2624472;52;20997;-71
2020/12/23 06:49:57;;;;;;;1.12;0.50;;;18.50;63.90;;;;;;2622894;52;21637;-72
2020/12/23 06:52:34;;;;;;;1.05;0.40;;;18.50;63.90;;;;;;2371718;53;20966;-71
2020/12/23 06:55:17;;;;;;;0.73;0.30;;;18.50;63.50;;;;;;2351683;54;20946;-71
2020/12/23 06:57:49;;;;;;;1.45;0.47;;;18.50;64.60;;;;;;2601687;52;21731;-71
2020/12/23 07:00:48;;;;;;;0.88;0.40;;;18.50;64.10;;;;;;2352770;53;21050;-71
2020/12/23 07:03:15;;;;;;;1.10;0.40;;;18.50;63.30;;;;;;2356149;53;20942;-71
2020/12/23 07:05:42;;;;;;;0.65;0.30;;;18.50;64.30;;;;;;2363183;53;20971;-72
2020/12/23 07:08:10;;;;;;;1.10;0.60;;;18.50;64.50;;;;;;2601579;52;22160;-71
2020/12/23 07:10:39;;;;;;;1.20;0.50;;;18.50;64.40;;;;;;2577237;52;21019;-72
2020/12/23 07:13:14;;;;;;;0.98;0.40;;;18.50;64.00;;;;;;2362391;53;21873;-71
2020/12/23 07:15:56;;;;;;;1.02;0.40;;;18.50;63.70;;;;;;2590394;53;20924;-71
2020/12/23 07:18:28;;;;;;;1.02;0.40;;;18.50;63.60;;;;;;2352685;53;21001;-72
2020/12/23 07:21:02;;;;;;;0.80;0.30;;;18.50;64.20;;;;;;2359747;53;21014;-72
2020/12/23 07:23:30;;;;;;;1.25;0.50;;;18.50;63.20;;;;;;2364271;53;21427;-71
2020/12/23 07:25:58;;;;;;;1.30;0.60;;;18.50;63.60;;;;;;2354809;53;20946;-71
2020/12/23 07:28:38;;;;;;;1.83;0.80;;;18.50;64.20;;;;;;2369678;53;20962;-72
2020/12/23 07:31:04;;;;;;;1.90;0.80;;;18.50;63.30;;;;;;2589915;53;20891;-71
2020/12/23 07:33:32;;;;;;;1.17;0.43;;;18.50;64.30;;;;;;2358785;53;20946;-72
2020/12/23 07:36:00;;;;;;;1.17;0.50;;;18.50;64.10;;;;;;2371707;53;20958;-71
2020/12/23 07:38:28;;;;;;;0.55;0.37;;;18.50;64.30;;;;;;2354831;53;20951;-72
2020/12/23 07:40:54;;;;;;;1.27;0.40;;;18.50;64.10;;;;;;2371368;53;21009;-72
2020/12/23 07:43:20;;;;;;;0.68;0.40;;;18.50;64.20;;;;;;2354626;53;21018;-73
2020/12/23 07:45:47;;;;;;;0.95;0.40;;;18.50;64.20;;;;;;2344503;54;21884;-72
2020/12/23 07:48:18;;;;;;;1.45;0.55;;;18.50;64.40;;;;;;2589722;52;20938;-72
2020/12/23 07:50:54;;;;;;;1.80;0.57;;;18.50;64.10;;;;;;2596294;52;20954;-72
2020/12/23 07:53:27;;;;;;;1.67;0.60;;;18.50;64.40;;;;;;2624038;52;21041;-71
2020/12/23 07:56:05;;;;;;;1.95;0.60;;;18.50;64.20;;;;;;2356845;53;20916;-72
2020/12/23 07:58:33;;;;;;;2.33;0.80;;;18.40;63.60;;;;;;2621657;52;20962;-72
2020/12/23 08:01:02;;;;;;;2.55;1.00;;;18.40;64.40;;;;;;2606311;52;21055;-71
2020/12/23 08:03:32;;;;;;;1.67;0.70;;;18.40;64.40;;;;;;2365428;53;20978;-71
2020/12/23 08:06:09;;;;;;;2.08;0.77;;;18.40;64.30;;;;;;2339398;54;21003;-72
2020/12/23 08:08:37;;;;;;;2.35;0.60;;;18.40;64.00;;;;;;2608538;52;20974;-72
2020/12/23 08:11:10;;;;;;;2.05;0.65;;;18.40;64.40;;;;;;2355336;53;20987;-72
2020/12/23 08:13:37;;;;;;;1.62;0.60;;;18.40;64.00;;;;;;2369313;53;20961;-72
2020/12/23 08:16:10;;;;;;;1.73;0.68;;;18.40;65.40;;;;;;2351143;53;20961;-71
2020/12/23 08:18:37;;;;;;;2.35;0.70;;;18.40;64.10;;;;;;2608537;52;20946;-72
2020/12/23 08:21:08;;;;;;;0.88;0.40;;;18.50;64.60;;;;;;2346569;53;21432;-72
2020/12/23 08:23:37;;;;;;;1.27;0.55;;;18.50;64.30;;;;;;2595302;52;21075;-72
2020/12/23 08:26:04;;;;;;;2.58;0.88;;;18.50;64.70;;;;;;2588361;53;20943;-72
2020/12/23 08:28:35;;;;;;;2.37;0.90;;;18.50;64.80;;;;;;2346567;54;21424;-71
2020/12/23 08:31:02;;;;;;;2.15;0.70;;;18.50;64.70;;;;;;2356433;53;21029;-72
2020/12/23 08:33:29;;;;;;;7.53;3.95;;;18.50;65.10;;;;;;2344185;53;20945;-71
2020/12/23 08:36:02;;;;;;;6.53;3.80;;;18.50;65.20;;;;;;2349639;54;21033;-72
2020/12/23 08:38:41;;;;;;;;;;;18.50;64.70;;;;;;2363179;53;20954;-72
2020/12/23 08:41:17;;;;;;;3.10;1.30;;;18.50;63.90;;;;;;2334704;54;20211;-72
2020/12/23 08:43:47;;;;;;;5.78;2.00;;;18.50;64.90;;;;;;2372207;53;20949;-72
2020/12/23 08:46:43;;;;;;;5.00;2.33;;;18.50;65.20;;;;;;2350158;53;20958;-72
2020/12/23 08:49:10;;;;;;;3.28;1.20;;;18.50;64.10;;;;;;2371043;53;21650;-72
2020/12/23 08:51:37;;;;;;;2.00;0.90;;;18.60;65.40;;;;;;2624300;52;20942;-71
2020/12/23 08:54:37;;;;;;;2.67;0.70;;;18.60;65.60;;;;;;2596668;52;20919;-72
2020/12/23 08:57:04;;;;;;;3.15;0.98;;;18.60;64.00;;;;;;2351658;54;20970;-71
2020/12/23 08:59:38;;;;;;;3.80;1.35;;;18.60;65.50;;;;;;2353427;53;20938;-71
2020/12/23 09:02:14;;;;;;;1.45;0.57;;;18.60;64.50;;;;;;2595844;52;21896;-72
2020/12/23 09:04:40;;;;;;;2.10;0.62;;;18.60;64.90;;;;;;2575985;53;21069;-71
2020/12/23 09:07:08;;;;;;;2.08;0.73;;;18.60;65.10;;;;;;2347196;53;21081;-71
2020/12/23 09:09:34;;;;;;;2.60;0.70;;;18.60;65.10;;;;;;2352399;53;20937;-72
2020/12/23 09:12:04;;;;;;;2.72;1.10;;;18.60;64.80;;;;;;2351962;53;21450;-72
2020/12/23 09:14:40;;;;;;;2.90;1.10;;;18.60;64.90;;;;;;2371363;53;20993;-72
2020/12/23 09:17:13;;;;;;;3.33;1.30;;;18.60;64.60;;;;;;2325716;54;20978;-72
2020/12/23 09:20:00;;;;;;;2.95;0.98;;;18.60;65.10;;;;;;2330131;54;21062;-71
2020/12/23 09:22:37;;;;;;;1.98;0.65;;;18.70;64.70;;;;;;2345942;54;21035;-72
2020/12/23 09:26:15;;;;;;;5.43;1.90;;;18.70;64.60;;;;;;2366648;53;21624;-72
2020/12/23 09:28:41;;;;;;;3.15;1.10;;;18.70;63.60;;;;;;2357169;53;21784;-71
2020/12/23 09:31:08;;;;;;;3.20;1.10;;;18.70;65.40;;;;;;2360777;53;21495;-72
2020/12/23 09:33:41;;;;;;;3.22;1.30;;;18.70;65.00;;;;;;2600668;52;20938;-72
2020/12/23 09:36:07;;;;;;;3.22;0.93;;;18.70;64.40;;;;;;2590934;52;20903;-72
2020/12/23 09:38:34;;;;;;;1.85;0.68;;;18.70;65.20;;;;;;2339100;53;20927;-72
2020/12/23 09:41:06;;;;;;;1.92;0.80;;;18.70;65.00;;;;;;2346951;54;20931;-72
2020/12/23 09:43:34;;;;;;;1.60;0.50;;;18.70;64.20;;;;;;2623346;52;20978;-71
2020/12/23 09:46:06;;;;;;;1.50;0.60;;;18.70;64.40;;;;;;2355254;53;20979;-72
2020/12/23 09:48:32;;;;;;;1.90;0.77;;;18.70;64.60;;;;;;2621542;52;21705;-72
2020/12/23 09:51:05;;;;;;;2.55;0.70;;;18.70;64.70;;;;;;2370168;53;20922;-71
2020/12/23 09:53:33;;;;;;;1.27;0.50;;;18.70;64.10;;;;;;2371587;53;21912;-71
2020/12/23 09:56:00;;;;;;;1.40;0.60;;;18.70;64.60;;;;;;2622936;52;21053;-71
2020/12/23 09:58:27;;;;;;;3.42;0.70;;;18.70;64.60;;;;;;2368561;53;20990;-72
2020/12/23 10:00:53;;;;;;;1.30;0.60;;;18.70;64.50;;;;;;2575676;53;20961;-71
2020/12/23 10:03:20;;;;;;;1.70;0.50;;;18.70;64.20;;;;;;2340642;54;20932;-71
2020/12/23 10:05:47;;;;;;;1.35;0.50;;;18.70;64.60;;;;;;2359989;53;20926;-72
2020/12/23 10:08:13;;;;;;;0.90;0.30;;;18.70;64.50;;;;;;2359981;53;21003;-72
2020/12/23 10:10:40;;;;;;;0.95;0.35;;;18.70;64.70;;;;;;2614213;52;21174;-71
2020/12/23 10:13:07;;;;;;;1.35;0.40;;;18.70;64.90;;;;;;2622471;52;20978;-71
2020/12/23 10:15:33;;;;;;;1.23;0.50;;;18.80;64.60;;;;;;2582984;53;21000;-72
2020/12/23 10:18:00;;;;;;;0.82;0.30;;;18.80;65.00;;;;;;2576644;53;20945;-72
2020/12/23 10:20:28;;;;;;;0.85;0.40;;;18.80;64.90;;;;;;2334767;54;21363;-72
2020/12/23 10:22:54;;;;;;;0.65;0.30;;;18.80;64.80;;;;;;2371941;53;21046;-72
2020/12/23 10:25:20;;;;;;;1.65;0.60;;;18.80;64.00;;;;;;2609155;52;21460;-72
2020/12/23 10:27:47;;;;;;;1.52;0.60;;;18.80;64.30;;;;;;2571691;53;21063;-72
2020/12/23 10:30:13;;;;;;;4.07;0.55;;;18.80;64.10;;;;;;2338921;54;20977;-72
2020/12/23 10:32:40;;;;;;;1.55;0.60;;;18.80;64.00;;;;;;2330160;53;20958;-72
2020/12/23 10:35:07;;;;;;;1.92;0.70;;;18.80;64.10;;;;;;2357139;53;21035;-72
2020/12/23 10:37:34;;;;;;;1.52;0.60;;;18.80;63.90;;;;;;2574894;53;20935;-72
2020/12/23 10:40:00;;;;;;;2.20;1.08;;;18.80;63.60;;;;;;2619189;52;21000;-72
2020/12/23 10:42:28;;;;;;;1.70;0.65;;;18.80;63.90;;;;;;2601003;52;21034;-71
2020/12/23 10:44:54;;;;;;;1.62;0.60;;;18.80;64.00;;;;;;2366530;53;20939;-71
2020/12/23 10:47:29;;;;;;;0.93;0.50;;;18.80;64.00;;;;;;2580553;52;20898;-71
2020/12/23 10:49:55;;;;;;;1.45;0.55;;;18.80;64.10;;;;;;2350446;53;21365;-71
2020/12/23 10:52:22;;;;;;;2.03;0.60;;;18.80;64.20;;;;;;2371578;53;20953;-72
2020/12/23 10:54:49;;;;;;;3.55;0.68;;;18.80;64.10;;;;;;2371339;53;21519;-72
2020/12/23 10:57:15;;;;;;;1.27;0.50;;;18.80;63.40;;;;;;2570539;52;21459;-72
2020/12/23 10:59:41;;;;;;;1.60;0.50;;;18.80;63.70;;;;;;2372196;53;21006;-72
2020/12/23 11:02:08;;;;;;;1.05;0.47;;;18.80;63.50;;;;;;2595935;52;20997;-72
2020/12/23 11:04:35;;;;;;;1.60;0.60;;;18.90;63.70;;;;;;2363831;53;20971;-72
2020/12/23 11:07:01;;;;;;;2.33;0.80;;;18.90;63.80;;;;;;2358688;53;20969;-71
2020/12/23 11:09:27;;;;;;;2.15;0.80;;;18.90;63.60;;;;;;2351840;53;20999;-72
2020/12/23 11:11:54;;;;;;;1.83;0.73;;;18.90;63.70;;;;;;2343760;53;21036;-71
2020/12/23 11:14:20;;;;;;;2.05;0.57;;;18.90;63.40;;;;;;2359391;53;21022;-72
2020/12/23 11:16:48;;;;;;;2.60;0.90;;;19.00;63.80;;;;;;2588754;52;20944;-71
2020/12/23 11:19:14;;;;;;;3.47;1.35;;;19.00;63.50;;;;;;2603850;52;20902;-71
2020/12/23 11:21:41;;;;;;;2.40;1.00;;;19.00;63.40;;;;;;2371480;53;21533;-72
2020/12/23 11:24:07;;;;;;;3.10;1.00;;;19.00;63.80;;;;;;2342332;53;21550;-72
2020/12/23 11:26:34;;;;;;;3.20;1.02;;;19.00;63.70;;;;;;2340035;53;20971;-71
2020/12/23 11:29:00;;;;;;;3.58;1.50;;;19.10;63.80;;;;;;2585258;53;21420;-72
2020/12/23 11:31:27;;;;;;;3.83;0.70;;;19.10;63.60;;;;;;2344192;53;21062;-72
2020/12/23 11:33:54;;;;;;;1.83;0.73;;;19.10;63.80;;;;;;2342982;53;21020;-71
2020/12/23 11:36:21;;;;;;;1.12;0.43;;;19.10;63.80;;;;;;2339299;53;20981;-72
2020/12/23 11:38:48;;;;;;;1.67;0.68;;;19.20;63.60;;;;;;2324771;53;20948;-72
2020/12/23 11:41:14;;;;;;;1.25;0.50;;;19.20;63.80;;;;;;2343790;53;20921;-71
2020/12/23 11:43:41;;;;;;;2.03;0.70;;;19.20;63.80;;;;;;2585730;53;21587;-72
2020/12/23 11:46:07;;;;;;;2.53;0.93;;;19.20;63.30;;;;;;2342566;53;20897;-71
2020/12/23 11:48:34;;;;;;;1.58;0.60;;;19.30;63.20;;;;;;2343195;53;20996;-72
2020/12/23 11:51:01;;;;;;;2.12;0.80;;;19.30;62.80;;;;;;2341481;53;20944;-71
2020/12/23 11:53:27;;;;;;;1.52;0.60;;;19.30;62.80;;;;;;2342640;53;20979;-72
2020/12/23 11:55:56;;;;;;;2.17;0.80;;;19.30;62.20;;;;;;2346422;53;21498;-71
2020/12/23 11:58:27;;;;;;;2.80;0.62;;;19.30;62.10;;;;;;2334860;54;21005;-72
2020/12/23 12:00:54;;;;;;;2.40;1.00;;;19.30;62.30;;;;;;2319046;54;21652;-71
2020/12/23 12:03:21;;;;;;;1.50;0.60;;;19.30;62.20;;;;;;2331064;53;20948;-72
2020/12/23 12:05:52;;;;;;;1.92;0.70;;;19.30;61.90;;;;;;2343868;53;21078;-72
2020/12/23 12:08:22;;;;;;;1.30;0.60;;;19.30;61.40;;;;;;2589922;52;20989;-72
2020/12/23 12:10:57;;;;;;;0.85;0.40;;;19.30;61.70;;;;;;2340607;53;20937;-71
2020/12/23 12:13:23;;;;;;;1.08;0.50;;;19.30;61.90;;;;;;2366865;53;20958;-71
2020/12/23 12:15:53;;;;;;;1.27;0.50;;;19.20;61.20;;;;;;2371683;53;20961;-71
2020/12/23 12:18:38;;;;;;;1.87;0.60;;;19.20;61.20;;;;;;2371930;53;20922;-71
2020/12/23 12:21:05;;;;;;;1.42;0.50;;;19.20;60.30;;;;;;2349587;53;20993;-72
2020/12/23 12:23:32;;;;;;;1.00;0.40;;;19.10;61.00;;;;;;2579900;53;21054;-72
2020/12/23 12:26:08;;;;;;;3.12;0.95;;;19.00;61.00;;;;;;2365739;53;20970;-72
2020/12/23 12:28:35;;;;;;;4.28;1.83;;;18.90;60.70;;;;;;2371595;53;20906;-72
2020/12/23 12:31:04;;;;;;;3.75;1.40;;;18.80;61.20;;;;;;2371769;53;20958;-72
2020/12/23 12:33:31;;;;;;;2.37;1.00;;;18.70;61.40;;;;;;2624320;52;20937;-72
2020/12/23 12:35:58;;;;;;;2.67;1.00;;;18.60;61.00;;;;;;2371335;53;21486;-72
2020/12/23 12:38:24;;;;;;;2.40;0.95;;;18.40;61.40;;;;;;2358354;53;20967;-72
2020/12/23 12:40:58;;;;;;;3.83;1.50;;;18.30;61.80;;;;;;2618341;52;20985;-72
2020/12/23 12:43:25;;;;;;;5.65;2.65;;;18.20;62.10;;;;;;2349515;53;20946;-72
2020/12/23 12:45:54;;;;;;;6.75;3.90;;;18.10;62.40;;;;;;2371866;53;20946;-72
2020/12/23 12:48:22;;;;;;;5.28;2.72;;;18.00;62.80;;;;;;2375061;53;20970;-72
2020/12/23 12:50:48;;;;;;;3.37;1.70;;;17.90;63.10;;;;;;2589928;53;21083;-72
2020/12/23 12:53:16;;;;;;;2.28;1.02;;;17.80;63.30;;;;;;2335127;54;21014;-72
2020/12/23 12:55:44;;;;;;;2.30;0.98;;;17.70;63.40;;;;;;2551926;53;20942;-72
2020/12/23 12:58:10;;;;;;;3.62;1.62;;;17.70;63.60;;;;;;2330033;54;20996;-73